Time;durP1;ratioP1;P1;durP2;ratioP2;P2;SDS_P1;SDS_P2;PMS_P1;PMS_P2;Temp;Humidity;BMP_temperature;BMP_pressure;BME280_temperature;BME280_humidity;BME280_pressure;Samples;Min_cycle;Max_cycle;Signal;HPM_P1;HPM_P2
2023/07/03 00:01:01;;;;;;;18.05;11.77;;;16.60;99.90;;;;;;4979168;28;20675;-77
2023/07/03 00:03:27;;;;;;;14.98;10.98;;;16.60;99.90;;;;;;4978819;28;20030;-76
2023/07/03 00:05:53;;;;;;;16.95;12.30;;;16.50;99.90;;;;;;4978540;28;20517;-77
2023/07/03 00:08:19;;;;;;;18.48;11.18;;;16.50;99.90;;;;;;4978913;28;20700;-76
2023/07/03 00:10:44;;;;;;;16.33;11.05;;;16.40;99.90;;;;;;4978996;28;20050;-76
2023/07/03 00:13:10;;;;;;;16.58;11.65;;;16.40;99.90;;;;;;4979313;28;20742;-77
2023/07/03 00:15:36;;;;;;;17.08;12.05;;;16.40;99.90;;;;;;4978044;28;20181;-76
2023/07/03 00:18:02;;;;;;;16.17;10.75;;;16.30;99.90;;;;;;4978916;28;20051;-77
2023/07/03 00:20:28;;;;;;;17.95;11.63;;;16.30;99.90;;;;;;4979018;28;20030;-76
2023/07/03 00:22:57;;;;;;;18.63;11.50;;;16.30;99.90;;;;;;4979381;28;20390;-76
2023/07/03 00:25:23;;;;;;;17.73;11.70;;;16.20;99.90;;;;;;4977915;28;20113;-76
2023/07/03 00:27:49;;;;;;;19.33;12.75;;;16.20;99.90;;;;;;4977923;28;20410;-76
2023/07/03 00:30:16;;;;;;;18.35;12.38;;;16.20;99.90;;;;;;4983373;28;20065;-76
2023/07/03 00:32:42;;;;;;;15.52;10.82;;;16.20;99.90;;;;;;4981275;28;20486;-77
2023/07/03 00:35:08;;;;;;;16.75;10.90;;;16.20;99.90;;;;;;4980493;28;21056;-76
2023/07/03 00:37:35;;;;;;;18.08;12.35;;;16.20;99.90;;;;;;4981702;28;20030;-76
2023/07/03 00:40:01;;;;;;;16.38;11.73;;;16.20;99.90;;;;;;4981846;28;20038;-76
2023/07/03 00:42:28;;;;;;;19.30;12.15;;;16.10;99.90;;;;;;4982904;28;20042;-77
2023/07/03 00:44:54;;;;;;;16.98;11.90;;;16.10;99.90;;;;;;4983265;28;20045;-76
2023/07/03 00:47:20;;;;;;;20.15;12.57;;;16.10;99.90;;;;;;4981434;28;20035;-76
2023/07/03 00:49:45;;;;;;;15.55;11.35;;;16.10;99.90;;;;;;4983722;28;20026;-77
2023/07/03 00:52:12;;;;;;;15.20;11.15;;;16.10;99.90;;;;;;4982695;28;20682;-77
2023/07/03 00:54:38;;;;;;;17.77;12.30;;;16.00;99.90;;;;;;4983125;28;20018;-76
2023/07/03 00:57:04;;;;;;;15.98;11.60;;;16.00;99.90;;;;;;4981200;28;20090;-76
2023/07/03 00:59:33;;;;;;;19.67;12.10;;;15.90;99.90;;;;;;4981123;28;20104;-76
2023/07/03 01:02:09;;;;;;;17.83;11.95;;;15.90;99.90;;;;;;4981935;28;20029;-77
2023/07/03 01:04:54;;;;;;;19.38;12.30;;;15.90;99.90;;;;;;4982899;28;20054;-76
2023/07/03 01:07:24;;;;;;;18.73;11.80;;;15.90;99.90;;;;;;4981852;28;20435;-76
2023/07/03 01:09:54;;;;;;;18.42;12.35;;;15.80;99.90;;;;;;4980926;28;20049;-77
2023/07/03 01:12:23;;;;;;;17.80;11.60;;;15.80;99.90;;;;;;4982590;28;20030;-77
2023/07/03 01:14:50;;;;;;;21.00;12.38;;;15.80;99.90;;;;;;4982962;28;20037;-76
2023/07/03 01:17:16;;;;;;;20.80;12.57;;;15.70;99.90;;;;;;4980669;28;20053;-76
2023/07/03 01:19:44;;;;;;;17.77;12.00;;;15.70;99.90;;;;;;4982134;28;20046;-76
2023/07/03 01:22:19;;;;;;;18.90;12.10;;;15.60;99.90;;;;;;4981099;28;20041;-76
2023/07/03 01:24:54;;;;;;;16.83;12.02;;;15.60;99.90;;;;;;4982221;28;20034;-76
2023/07/03 01:27:22;;;;;;;23.80;13.07;;;15.50;99.90;;;;;;4981981;28;20156;-77
2023/07/03 01:29:53;;;;;;;19.40;12.77;;;15.50;99.90;;;;;;4982208;28;20045;-76
2023/07/03 01:32:22;;;;;;;18.30;13.05;;;15.40;99.90;;;;;;4979881;28;21452;-76
2023/07/03 01:34:50;;;;;;;21.60;13.63;;;15.40;99.90;;;;;;4981735;28;20030;-76
2023/07/03 01:37:17;;;;;;;20.20;13.65;;;15.40;99.90;;;;;;4981327;28;20030;-77
2023/07/03 01:39:45;;;;;;;24.63;14.15;;;15.40;99.90;;;;;;4981570;28;20132;-77
2023/07/03 01:42:12;;;;;;;20.30;12.80;;;15.40;99.90;;;;;;4981228;28;20030;-77
2023/07/03 01:44:38;;;;;;;18.67;12.80;;;15.40;99.90;;;;;;4981339;28;20030;-76
2023/07/03 01:47:06;;;;;;;18.58;12.77;;;15.30;99.90;;;;;;4981234;28;20026;-76
2023/07/03 01:49:32;;;;;;;20.23;13.40;;;15.30;99.90;;;;;;4980902;28;20057;-76
2023/07/03 01:52:34;;;;;;;22.33;13.60;;;15.30;99.90;;;;;;4981562;28;20478;-76
2023/07/03 01:55:19;;;;;;;18.73;12.57;;;15.20;99.90;;;;;;4982223;28;20049;-76
2023/07/03 01:57:56;;;;;;;19.77;13.55;;;15.20;99.90;;;;;;4980430;28;20044;-77
2023/07/03 02:00:32;;;;;;;20.25;13.52;;;15.20;99.90;;;;;;4980653;28;20034;-76
2023/07/03 02:03:02;;;;;;;19.08;12.30;;;15.20;99.90;;;;;;4981499;28;20034;-76
2023/07/03 02:05:30;;;;;;;22.58;13.40;;;15.10;99.90;;;;;;4980717;28;20034;-76
2023/07/03 02:07:59;;;;;;;22.88;13.40;;;15.10;99.90;;;;;;4981075;28;20074;-77
2023/07/03 02:10:25;;;;;;;21.05;13.95;;;15.10;99.90;;;;;;4981101;28;20041;-76
2023/07/03 02:12:50;;;;;;;19.42;13.25;;;15.10;99.90;;;;;;4981352;28;20030;-76
2023/07/03 02:15:16;;;;;;;21.42;13.73;;;15.00;99.90;;;;;;4981308;28;20117;-77
2023/07/03 02:17:42;;;;;;;20.25;13.98;;;15.00;99.90;;;;;;4980077;28;20053;-76
2023/07/03 02:20:14;;;;;;;20.45;13.63;;;15.00;99.90;;;;;;4981123;28;20459;-77
2023/07/03 02:22:41;;;;;;;22.35;13.02;;;15.00;99.90;;;;;;4981574;28;20031;-76
2023/07/03 02:25:07;;;;;;;20.58;14.45;;;14.90;99.90;;;;;;4980895;28;20034;-77
2023/07/03 02:27:33;;;;;;;22.20;15.10;;;14.90;99.90;;;;;;4979336;28;20042;-76
2023/07/03 02:29:58;;;;;;;21.75;13.95;;;14.90;99.90;;;;;;4979320;28;20034;-76
2023/07/03 02:32:35;;;;;;;22.08;14.73;;;14.80;99.90;;;;;;4979382;28;20394;-76
2023/07/03 02:35:01;;;;;;;20.75;13.70;;;14.80;99.90;;;;;;4980701;28;20066;-76
2023/07/03 02:37:26;;;;;;;20.38;13.60;;;14.80;99.90;;;;;;4979977;28;20913;-77
2023/07/03 02:39:52;;;;;;;20.75;13.43;;;14.80;99.90;;;;;;4981419;28;20034;-76
2023/07/03 02:42:17;;;;;;;22.08;13.98;;;14.70;99.90;;;;;;4979277;28;20486;-76
2023/07/03 02:44:43;;;;;;;19.98;13.40;;;14.70;99.90;;;;;;4980606;28;20031;-76
2023/07/03 02:47:08;;;;;;;23.83;14.93;;;14.70;99.90;;;;;;4979824;28;20109;-77
2023/07/03 02:49:34;;;;;;;23.63;13.85;;;14.70;99.90;;;;;;4979781;28;20545;-76
2023/07/03 02:51:59;;;;;;;22.33;13.55;;;14.70;99.90;;;;;;4979491;28;20153;-77
2023/07/03 02:54:25;;;;;;;20.13;12.73;;;14.70;99.90;;;;;;4980201;28;20027;-76
2023/07/03 02:56:50;;;;;;;19.58;13.00;;;14.70;99.90;;;;;;4979740;28;20027;-76
2023/07/03 02:59:16;;;;;;;21.83;14.15;;;14.70;99.90;;;;;;4980700;28;20085;-76
2023/07/03 03:01:42;;;;;;;24.75;14.07;;;14.70;99.90;;;;;;4980550;28;20034;-76
2023/07/03 03:04:07;;;;;;;22.92;13.60;;;14.70;99.90;;;;;;4982247;28;20069;-76
2023/07/03 03:06:33;;;;;;;21.75;14.00;;;14.70;99.90;;;;;;4981766;28;20049;-77
2023/07/03 03:08:59;;;;;;;24.00;14.00;;;14.70;99.90;;;;;;4981630;28;20101;-76
2023/07/03 03:11:24;;;;;;;21.67;13.38;;;14.70;99.90;;;;;;4979446;28;20073;-76
2023/07/03 03:13:50;;;;;;;22.80;13.73;;;14.70;99.90;;;;;;4980066;28;20110;-76
2023/07/03 03:16:16;;;;;;;22.65;15.15;;;14.70;99.90;;;;;;4980130;28;20110;-76
2023/07/03 03:18:41;;;;;;;21.20;13.65;;;14.70;99.90;;;;;;4979364;28;21054;-77
2023/07/03 03:21:07;;;;;;;25.25;14.35;;;14.70;99.90;;;;;;4978323;28;20034;-76
2023/07/03 03:23:33;;;;;;;24.15;13.90;;;14.70;99.90;;;;;;4979196;28;20034;-76
2023/07/03 03:25:58;;;;;;;27.20;14.45;;;14.70;99.90;;;;;;4980564;28;20083;-76
2023/07/03 03:28:24;;;;;;;23.85;15.13;;;14.70;99.90;;;;;;4978873;28;20042;-77
2023/07/03 03:30:49;;;;;;;21.33;13.85;;;14.70;99.90;;;;;;4979324;28;20173;-76
2023/07/03 03:33:15;;;;;;;22.77;13.02;;;14.70;99.90;;;;;;4977092;28;20038;-76
2023/07/03 03:35:41;;;;;;;23.58;14.55;;;14.70;99.90;;;;;;4979296;28;20073;-77
2023/07/03 03:38:06;;;;;;;21.05;13.80;;;14.70;99.90;;;;;;4978484;28;20046;-76
2023/07/03 03:40:32;;;;;;;22.65;14.32;;;14.80;99.90;;;;;;4975405;28;20045;-76
2023/07/03 03:45:25;;;;;;;23.70;14.48;;;14.80;99.90;;;;;;5014864;28;20042;-87
2023/07/03 03:47:52;;;;;;;24.73;13.85;;;14.80;99.90;;;;;;5005381;28;20029;-87
2023/07/03 03:50:17;;;;;;;28.13;13.63;;;14.80;99.90;;;;;;4997766;28;20070;-86
2023/07/03 03:52:43;;;;;;;24.33;14.18;;;14.80;99.90;;;;;;4999062;28;20061;-86
2023/07/03 03:55:09;;;;;;;24.52;14.02;;;14.90;99.90;;;;;;4998570;28;20057;-89
2023/07/03 03:57:34;;;;;;;24.00;13.73;;;14.90;99.90;;;;;;4996943;28;20483;-89
2023/07/03 04:00:00;;;;;;;24.90;14.43;;;14.90;99.90;;;;;;5000936;28;20041;-89
2023/07/03 04:02:26;;;;;;;24.15;14.38;;;15.00;99.90;;;;;;5001920;28;20045;-89
2023/07/03 04:04:51;;;;;;;23.88;14.07;;;15.00;99.90;;;;;;5005389;28;20491;-88
2023/07/03 04:07:17;;;;;;;27.35;14.18;;;15.00;99.90;;;;;;5003550;28;20023;-88
2023/07/03 04:09:42;;;;;;;21.63;13.55;;;15.00;99.90;;;;;;5000401;28;20041;-89
2023/07/03 04:12:08;;;;;;;23.25;13.63;;;15.10;99.90;;;;;;4981855;28;20018;-89
2023/07/03 04:14:33;;;;;;;24.70;13.82;;;15.10;99.90;;;;;;5002691;28;20117;-89
2023/07/03 04:17:00;;;;;;;25.00;13.63;;;15.10;99.90;;;;;;5002656;28;20109;-89
2023/07/03 04:19:28;;;;;;;21.65;13.70;;;15.20;99.90;;;;;;5003665;28;20033;-92
2023/07/03 04:21:54;;;;;;;30.40;14.05;;;15.20;99.90;;;;;;4999261;28;21146;-86
2023/07/03 04:24:19;;;;;;;23.10;14.77;;;15.20;99.90;;;;;;4999020;28;20030;-86
2023/07/03 04:26:45;;;;;;;21.85;13.57;;;15.20;99.90;;;;;;5000166;28;20117;-86
2023/07/03 04:29:10;;;;;;;26.00;14.68;;;15.30;99.90;;;;;;5000167;28;20050;-87
2023/07/03 04:31:36;;;;;;;22.23;13.18;;;15.30;99.90;;;;;;4999631;28;20101;-87
2023/07/03 04:34:01;;;;;;;21.20;13.57;;;15.40;99.90;;;;;;5001417;28;20383;-86
2023/07/03 04:36:27;;;;;;;23.92;13.93;;;15.40;99.90;;;;;;4982203;28;20033;-87
2023/07/03 04:38:57;;;;;;;23.15;14.50;;;15.50;99.90;;;;;;4999716;28;21041;-88
2023/07/03 04:41:28;;;;;;;26.73;14.00;;;15.50;99.90;;;;;;5001796;28;20044;-85
2023/07/03 04:43:57;;;;;;;20.88;13.50;;;15.50;99.90;;;;;;5000657;28;20061;-87
2023/07/03 04:46:25;;;;;;;31.30;15.07;;;15.60;99.90;;;;;;5001005;28;20034;-86
2023/07/03 04:48:51;;;;;;;27.67;14.73;;;15.70;99.90;;;;;;4997729;28;20173;-84
2023/07/03 04:51:17;;;;;;;23.67;13.50;;;15.70;99.90;;;;;;4994591;28;20034;-86
2023/07/03 04:53:43;;;;;;;23.92;13.68;;;15.80;99.90;;;;;;4994708;28;20030;-86
2023/07/03 04:56:09;;;;;;;25.58;14.63;;;15.90;99.90;;;;;;4996148;28;20047;-89
2023/07/03 04:58:35;;;;;;;24.33;14.50;;;15.90;99.90;;;;;;4995687;28;20046;-86
2023/07/03 05:01:00;;;;;;;33.70;15.68;;;16.00;99.90;;;;;;4999271;28;20032;-87
2023/07/03 05:03:26;;;;;;;20.88;13.68;;;16.00;99.90;;;;;;4996167;28;20132;-86
2023/07/03 05:05:51;;;;;;;26.20;13.98;;;16.10;99.90;;;;;;4997404;28;20037;-86
2023/07/03 05:08:17;;;;;;;23.05;13.27;;;16.10;99.90;;;;;;4993091;28;22003;-80
2023/07/03 05:10:42;;;;;;;20.40;13.80;;;16.20;99.90;;;;;;5004178;28;20038;-89
2023/07/03 05:13:08;;;;;;;23.27;14.32;;;16.20;99.90;;;;;;5005284;28;20400;-87
2023/07/03 05:15:34;;;;;;;24.48;14.77;;;16.20;99.90;;;;;;5006786;28;20029;-90
2023/07/03 05:17:59;;;;;;;23.90;14.00;;;16.30;99.90;;;;;;5004291;28;20154;-88
2023/07/03 05:20:29;;;;;;;24.63;13.52;;;16.40;99.90;;;;;;5007466;28;21073;-87
2023/07/03 05:22:55;;;;;;;22.10;13.20;;;16.40;99.90;;;;;;5009406;28;20172;-86
2023/07/03 05:25:21;;;;;;;27.60;14.32;;;16.50;99.90;;;;;;5003791;28;20985;-85
2023/07/03 05:27:48;;;;;;;29.20;14.43;;;16.60;99.90;;;;;;5006699;28;20027;-87
2023/07/03 05:30:14;;;;;;;24.58;13.88;;;16.70;99.90;;;;;;4985239;28;20042;-85
2023/07/03 05:32:39;;;;;;;22.42;13.65;;;16.90;99.90;;;;;;5003413;28;20080;-86
2023/07/03 05:35:06;;;;;;;22.88;13.32;;;16.90;99.90;;;;;;5008921;28;20045;-88
2023/07/03 05:37:32;;;;;;;22.33;13.35;;;17.00;99.90;;;;;;5006288;28;20081;-86
2023/07/03 05:39:58;;;;;;;23.50;13.85;;;17.10;99.90;;;;;;5007149;28;20121;-85
2023/07/03 05:42:24;;;;;;;24.75;13.75;;;17.20;99.90;;;;;;5004200;28;20125;-87
2023/07/03 05:44:50;;;;;;;27.02;13.07;;;17.30;99.90;;;;;;5006863;28;20613;-87
2023/07/03 05:47:17;;;;;;;23.77;13.13;;;17.30;99.90;;;;;;5005774;28;20045;-85
2023/07/03 05:49:43;;;;;;;21.42;13.20;;;17.40;99.90;;;;;;5005419;28;20113;-86
2023/07/03 05:52:10;;;;;;;23.10;13.65;;;17.60;99.90;;;;;;4993092;28;20037;-85
2023/07/03 05:54:36;;;;;;;29.27;13.95;;;17.70;99.90;;;;;;5009547;28;20109;-85
2023/07/03 05:57:09;;;;;;;26.17;13.48;;;17.80;99.90;;;;;;5009728;28;20058;-87
2023/07/03 05:59:36;;;;;;;24.25;14.43;;;18.00;99.90;;;;;;5014674;28;20053;-86
2023/07/03 06:02:04;;;;;;;26.08;13.20;;;18.10;99.90;;;;;;5007476;28;20085;-85
2023/07/03 06:04:30;;;;;;;24.60;13.23;;;18.20;99.90;;;;;;5007983;28;20030;-89
2023/07/03 06:06:56;;;;;;;22.30;12.60;;;18.30;99.90;;;;;;5005881;28;20038;-87
2023/07/03 06:09:26;;;;;;;25.48;13.00;;;18.50;99.90;;;;;;5009548;28;20925;-85
2023/07/03 06:11:51;;;;;;;27.58;12.70;;;18.70;99.90;;;;;;5006096;28;20026;-87
2023/07/03 06:14:19;;;;;;;26.67;12.38;;;18.80;99.90;;;;;;5004413;28;20049;-90
2023/07/03 06:16:48;;;;;;;24.75;12.38;;;18.90;99.90;;;;;;5006220;28;20029;-85
2023/07/03 06:19:16;;;;;;;19.38;11.10;;;19.00;99.90;;;;;;5004709;28;20041;-85
2023/07/03 06:21:41;;;;;;;22.25;12.70;;;19.00;99.90;;;;;;4987202;28;20029;-86
2023/07/03 06:24:09;;;;;;;22.60;11.77;;;19.20;99.90;;;;;;5003267;28;20407;-86
2023/07/03 06:26:35;;;;;;;21.77;11.65;;;19.40;99.90;;;;;;5003984;28;20034;-86
2023/07/03 06:29:02;;;;;;;24.33;12.35;;;19.40;99.90;;;;;;5003894;28;20112;-85
2023/07/03 06:31:28;;;;;;;26.27;11.95;;;19.60;99.90;;;;;;5005518;28;20081;-86
2023/07/03 06:33:54;;;;;;;22.80;11.70;;;19.80;99.90;;;;;;5002920;28;20041;-85
2023/07/03 06:36:21;;;;;;;22.35;11.50;;;19.80;99.90;;;;;;5003134;28;20026;-85
2023/07/03 06:38:55;;;;;;;20.45;11.85;;;20.00;99.90;;;;;;5003973;28;20041;-88
2023/07/03 06:41:22;;;;;;;23.80;11.27;;;20.20;99.90;;;;;;5004870;28;20486;-87
2023/07/03 06:43:47;;;;;;;19.00;10.52;;;20.20;99.90;;;;;;5003932;28;20117;-86
2023/07/03 06:46:14;;;;;;;21.75;11.60;;;20.40;99.90;;;;;;5002114;28;20116;-88
2023/07/03 06:48:41;;;;;;;21.63;10.98;;;20.40;99.90;;;;;;5001939;28;20026;-87
2023/07/03 06:51:09;;;;;;;25.45;12.73;;;20.50;99.90;;;;;;5006952;28;20026;-88
2023/07/03 06:53:34;;;;;;;21.23;12.32;;;20.60;99.90;;;;;;5003849;28;20022;-88
2023/07/03 06:56:01;;;;;;;24.77;13.43;;;20.70;99.90;;;;;;5001210;28;20041;-88
2023/07/03 06:58:28;;;;;;;20.88;11.55;;;20.60;99.90;;;;;;5001575;28;20064;-86
2023/07/03 07:00:53;;;;;;;25.08;12.23;;;20.40;99.90;;;;;;5004191;28;20030;-86
2023/07/03 07:03:19;;;;;;;21.95;12.23;;;20.40;99.90;;;;;;5004098;28;20038;-87
2023/07/03 07:05:46;;;;;;;21.90;12.40;;;20.50;99.90;;;;;;5001312;28;20036;-88
2023/07/03 07:08:16;;;;;;;20.45;11.50;;;20.50;99.90;;;;;;4998512;28;20034;-87
2023/07/03 07:10:43;;;;;;;20.67;11.43;;;20.50;99.90;;;;;;4998302;28;20083;-87
2023/07/03 07:13:09;;;;;;;20.27;12.13;;;20.50;99.90;;;;;;4997422;28;20061;-88
2023/07/03 07:15:39;;;;;;;21.95;12.27;;;20.60;99.90;;;;;;5002665;28;20719;-87
2023/07/03 07:18:06;;;;;;;20.10;12.40;;;20.70;99.90;;;;;;5002091;28;20513;-87
2023/07/03 07:20:39;;;;;;;23.75;12.55;;;20.70;99.90;;;;;;5003909;28;20027;-87
2023/07/03 07:23:06;;;;;;;22.73;12.77;;;20.60;99.90;;;;;;5002279;28;20029;-90
2023/07/03 07:25:32;;;;;;;20.27;12.02;;;20.60;99.90;;;;;;4999110;28;20144;-87
2023/07/03 07:27:58;;;;;;;21.50;12.82;;;20.70;99.90;;;;;;5002740;28;20029;-85
2023/07/03 07:30:23;;;;;;;20.35;11.60;;;20.80;99.90;;;;;;5000702;28;20104;-86
2023/07/03 07:32:52;;;;;;;23.65;12.18;;;20.80;99.90;;;;;;5004622;28;20127;-85
2023/07/03 07:35:18;;;;;;;22.50;12.70;;;20.80;99.90;;;;;;5002544;28;20172;-86
2023/07/03 07:37:44;;;;;;;18.42;11.75;;;20.80;99.90;;;;;;5000467;28;20046;-85
2023/07/03 07:40:11;;;;;;;20.92;12.93;;;20.80;99.90;;;;;;5002343;28;20469;-84
2023/07/03 07:42:37;;;;;;;20.30;12.05;;;21.00;99.90;;;;;;4998795;28;20031;-85
2023/07/03 07:45:03;;;;;;;21.95;11.93;;;21.00;99.90;;;;;;5004894;28;20038;-86
2023/07/03 07:47:29;;;;;;;26.88;13.25;;;21.10;99.90;;;;;;5004554;28;20161;-85
2023/07/03 07:49:55;;;;;;;21.83;12.52;;;21.10;99.90;;;;;;5001530;28;20117;-85
2023/07/03 07:52:23;;;;;;;27.15;13.70;;;21.00;99.90;;;;;;4998150;28;20114;-86
2023/07/03 07:54:53;;;;;;;23.88;12.93;;;21.10;99.90;;;;;;5000569;28;20025;-85
2023/07/03 07:57:18;;;;;;;19.70;12.02;;;21.00;99.90;;;;;;4998240;28;20069;-87
2023/07/03 07:59:44;;;;;;;18.70;11.80;;;21.00;99.90;;;;;;5003700;28;20034;-85
2023/07/03 08:02:09;;;;;;;21.60;11.95;;;21.10;99.90;;;;;;4997796;28;20030;-86
2023/07/03 08:04:35;;;;;;;15.43;10.90;;;21.10;99.90;;;;;;4996523;28;20034;-87
2023/07/03 08:07:00;;;;;;;19.77;11.60;;;21.00;99.90;;;;;;4997464;28;20041;-85
2023/07/03 08:09:26;;;;;;;23.35;11.23;;;21.00;99.90;;;;;;4997089;28;20034;-86
2023/07/03 08:11:52;;;;;;;21.33;9.93;;;20.90;99.90;;;;;;4999539;28;20029;-86
2023/07/03 08:14:17;;;;;;;20.58;10.32;;;21.00;99.90;;;;;;4998470;28;20030;-89
2023/07/03 08:16:43;;;;;;;16.50;9.43;;;21.00;99.90;;;;;;5003274;28;20084;-87
2023/07/03 08:19:08;;;;;;;20.95;9.77;;;21.10;99.90;;;;;;4998557;28;20083;-88
2023/07/03 08:21:34;;;;;;;17.95;9.88;;;21.10;99.90;;;;;;5003158;28;20018;-88
2023/07/03 08:23:59;;;;;;;18.23;9.90;;;21.00;99.90;;;;;;5000035;28;20094;-91
2023/07/03 08:26:25;;;;;;;15.40;9.48;;;21.20;99.90;;;;;;4998113;28;20057;-87
2023/07/03 08:28:51;;;;;;;17.20;9.18;;;21.20;99.90;;;;;;5004608;28;20057;-89
2023/07/03 08:31:17;;;;;;;17.90;8.95;;;21.40;99.90;;;;;;5002617;28;20113;-89
2023/07/03 08:33:42;;;;;;;14.90;9.15;;;21.50;99.90;;;;;;4998479;28;20037;-89
2023/07/03 08:36:08;;;;;;;17.38;8.70;;;21.50;99.90;;;;;;4999041;28;20022;-88
2023/07/03 08:38:33;;;;;;;15.40;8.65;;;21.50;99.90;;;;;;4997472;28;20038;-89
2023/07/03 08:41:00;;;;;;;15.20;8.75;;;21.70;99.90;;;;;;5000135;28;20022;-85
2023/07/03 08:43:41;;;;;;;17.45;8.50;;;21.80;99.90;;;;;;4997546;28;20045;-85
2023/07/03 08:46:11;;;;;;;14.95;7.88;;;22.00;99.90;;;;;;4997165;28;20090;-86
2023/07/03 08:48:40;;;;;;;11.02;7.13;;;22.10;99.90;;;;;;4999505;28;20034;-85
2023/07/03 08:51:10;;;;;;;14.32;7.65;;;22.30;99.90;;;;;;5004099;28;20022;-85
2023/07/03 08:53:40;;;;;;;13.75;7.43;;;22.40;99.90;;;;;;5002849;28;20104;-87
2023/07/03 08:56:11;;;;;;;16.40;7.30;;;22.40;99.90;;;;;;5001306;28;20057;-86
2023/07/03 08:58:36;;;;;;;15.38;7.18;;;22.30;99.90;;;;;;5004541;28;20033;-86
2023/07/03 09:01:17;;;;;;;15.23;7.57;;;22.20;99.90;;;;;;5011599;28;20041;-88
2023/07/03 09:03:58;;;;;;;14.75;7.30;;;22.20;99.90;;;;;;5004851;28;20022;-86
2023/07/03 09:06:27;;;;;;;14.18;6.55;;;22.40;99.90;;;;;;5004561;28;20032;-88
2023/07/03 09:09:03;;;;;;;14.30;6.60;;;22.40;99.90;;;;;;5002633;28;20026;-85
2023/07/03 09:11:31;;;;;;;13.57;6.80;;;22.20;99.90;;;;;;5001379;28;20023;-81
2023/07/03 09:14:02;;;;;;;14.40;7.03;;;22.10;99.90;;;;;;4995480;28;20080;-77
2023/07/03 09:16:31;;;;;;;12.40;6.47;;;22.00;99.90;;;;;;4987705;28;20560;-78
2023/07/03 09:19:20;;;;;;;13.60;6.32;;;21.90;99.90;;;;;;4987421;28;20116;-77
2023/07/03 09:21:47;;;;;;;13.73;6.32;;;22.00;99.90;;;;;;4988100;28;20578;-76
2023/07/03 09:24:37;;;;;;;15.02;6.45;;;22.30;99.90;;;;;;4989276;28;20042;-78
2023/07/03 09:27:18;;;;;;;12.15;6.38;;;22.40;99.90;;;;;;4987842;28;21487;-77
2023/07/03 09:29:45;;;;;;;9.82;7.00;;;22.60;99.90;;;;;;4985545;28;20041;-77
2023/07/03 09:32:12;;;;;;;14.65;6.43;;;22.60;99.90;;;;;;4984230;28;20038;-78
2023/07/03 09:34:57;;;;;;;11.55;6.88;;;22.50;99.90;;;;;;4987145;28;20145;-78
2023/07/03 09:37:22;;;;;;;15.02;6.43;;;22.60;99.90;;;;;;4987243;28;20113;-78
2023/07/03 09:39:51;;;;;;;10.88;6.43;;;22.80;99.90;;;;;;4986382;28;20040;-78
2023/07/03 09:42:17;;;;;;;12.18;6.88;;;22.80;99.90;;;;;;4987247;28;20030;-77
2023/07/03 09:44:43;;;;;;;10.32;6.80;;;23.10;99.90;;;;;;4989314;28;20042;-78
2023/07/03 09:49:43;;;;;;;13.00;7.13;;;23.70;99.90;;;;;;4981429;28;20073;-78
2023/07/03 09:52:09;;;;;;;12.75;6.80;;;23.80;99.90;;;;;;4985608;28;20147;-78
2023/07/03 09:54:43;;;;;;;10.98;6.80;;;24.00;99.90;;;;;;4989365;28;20033;-79
2023/07/03 09:57:25;;;;;;;12.13;6.00;;;24.20;99.90;;;;;;4992495;28;20156;-77
2023/07/03 09:59:54;;;;;;;9.48;5.82;;;24.40;99.90;;;;;;4991748;28;20065;-77
2023/07/03 10:02:23;;;;;;;16.50;6.32;;;24.50;99.90;;;;;;4990588;28;20054;-76
2023/07/03 10:04:48;;;;;;;12.77;5.97;;;24.50;99.90;;;;;;4983042;28;20129;-78
2023/07/03 10:07:16;;;;;;;15.13;6.15;;;24.60;99.90;;;;;;4983011;28;20030;-77
2023/07/03 10:09:43;;;;;;;16.10;6.20;;;24.90;99.90;;;;;;4983453;28;20100;-76
2023/07/03 10:12:19;;;;;;;11.75;6.30;;;25.10;99.90;;;;;;4982152;28;20061;-76
2023/07/03 10:15:06;;;;;;;14.40;6.45;;;25.10;99.90;;;;;;4982986;28;20573;-76
2023/07/03 10:17:37;;;;;;;12.52;6.70;;;25.50;99.90;;;;;;4982750;28;20165;-77
2023/07/03 10:20:09;;;;;;;11.63;6.05;;;25.80;99.90;;;;;;4981523;28;20666;-76
2023/07/03 10:22:37;;;;;;;10.90;6.65;;;25.60;99.90;;;;;;4983507;28;20041;-75
2023/07/03 10:25:07;;;;;;;12.35;6.10;;;25.20;99.90;;;;;;4979242;28;20061;-75
2023/07/03 10:27:35;;;;;;;10.30;5.60;;;24.90;99.90;;;;;;4981428;28;20034;-77
2023/07/03 10:30:04;;;;;;;11.80;6.25;;;24.60;99.90;;;;;;4980355;28;20034;-77
2023/07/03 10:32:33;;;;;;;10.27;6.18;;;24.30;99.90;;;;;;4984379;28;20026;-75
2023/07/03 10:35:10;;;;;;;11.43;6.47;;;24.10;99.90;;;;;;4983010;28;20588;-75
2023/07/03 10:37:47;;;;;;;15.50;6.43;;;23.90;99.90;;;;;;4984295;28;20034;-75
2023/07/03 10:40:27;;;;;;;11.88;6.35;;;23.70;99.90;;;;;;4982314;28;20089;-75
2023/07/03 10:42:56;;;;;;;11.65;6.40;;;23.70;99.90;;;;;;4984351;28;20149;-75
2023/07/03 10:45:24;;;;;;;13.45;6.18;;;23.50;99.90;;;;;;4984625;28;20161;-75
2023/07/03 10:47:56;;;;;;;8.95;5.93;;;23.40;99.90;;;;;;4984252;28;20038;-75
2023/07/03 10:50:32;;;;;;;9.85;5.55;;;23.30;99.90;;;;;;4983088;28;20053;-75
2023/07/03 10:53:25;;;;;;;10.00;6.18;;;23.20;99.90;;;;;;4984683;28;20069;-75
2023/07/03 10:56:27;;;;;;;12.23;6.35;;;23.10;99.90;;;;;;4983335;28;20032;-75
2023/07/03 10:59:10;;;;;;;12.32;6.25;;;23.10;99.90;;;;;;4980713;28;20050;-75
2023/07/03 11:02:02;;;;;;;12.77;5.85;;;22.90;99.90;;;;;;4981258;28;20450;-75
2023/07/03 11:04:49;;;;;;;9.68;6.07;;;22.80;99.90;;;;;;4982188;28;20033;-74
2023/07/03 11:07:43;;;;;;;12.55;6.60;;;22.70;99.90;;;;;;4981140;28;20041;-73
2023/07/03 11:10:31;;;;;;;9.40;5.57;;;22.80;99.90;;;;;;4980362;28;20086;-77
2023/07/03 11:13:49;;;;;;;10.93;6.22;;;23.10;99.90;;;;;;4983700;28;20708;-75
2023/07/03 11:16:16;;;;;;;16.98;6.93;;;23.10;99.90;;;;;;4895972;29;20040;-75
2023/07/03 11:19:11;;;;;;;11.68;6.57;;;23.10;99.90;;;;;;4895247;29;20693;-75
2023/07/03 11:21:42;;;;;;;10.10;6.07;;;23.40;99.90;;;;;;4954739;28;20066;-78
2023/07/03 11:24:22;;;;;;;11.52;6.47;;;24.10;99.90;;;;;;4982151;28;20037;-75
2023/07/03 11:27:07;;;;;;;11.93;6.20;;;24.40;99.90;;;;;;4981690;28;20034;-76
2023/07/03 11:29:33;;;;;;;15.85;6.88;;;24.70;99.90;;;;;;4980849;28;20026;-73
2023/07/03 11:31:59;;;;;;;9.68;5.93;;;24.90;99.90;;;;;;4980828;28;20053;-78
2023/07/03 11:34:26;;;;;;;13.30;7.00;;;24.80;99.90;;;;;;4979279;28;20097;-76
2023/07/03 11:36:57;;;;;;;10.00;5.95;;;24.70;99.90;;;;;;4977077;28;20045;-75
2023/07/03 11:39:27;;;;;;;12.25;6.00;;;24.70;99.90;;;;;;4976792;28;20050;-77
2023/07/03 11:42:01;;;;;;;12.45;6.18;;;24.50;99.90;;;;;;4978673;28;20057;-75
2023/07/03 11:44:27;;;;;;;;;;;24.50;99.90;;;;;;4982797;28;20033;-75
2023/07/03 11:46:56;;;;;;;12.07;6.28;;;24.40;99.90;;;;;;4981425;28;20456;-75
2023/07/03 11:49:34;;;;;;;10.07;6.30;;;24.20;99.90;;;;;;4982058;28;20104;-75
2023/07/03 11:52:03;;;;;;;12.15;6.28;;;24.10;99.90;;;;;;4980833;28;20045;-75
2023/07/03 11:54:31;;;;;;;11.48;6.38;;;24.00;99.90;;;;;;4982572;28;20618;-76
2023/07/03 11:57:06;;;;;;;12.93;6.72;;;24.10;99.90;;;;;;4982230;28;20615;-75
2023/07/03 11:59:42;;;;;;;10.57;6.18;;;24.00;99.90;;;;;;4981739;28;20042;-75
2023/07/03 12:02:28;;;;;;;10.80;6.32;;;23.90;99.90;;;;;;4981494;28;20116;-75
2023/07/03 12:04:54;;;;;;;16.02;7.07;;;23.80;99.90;;;;;;4943661;28;20049;-76
2023/07/03 12:07:20;;;;;;;15.43;6.53;;;23.70;99.90;;;;;;4974661;28;20095;-75
2023/07/03 12:09:52;;;;;;;12.82;6.43;;;23.80;99.90;;;;;;4978623;28;20038;-76
2023/07/03 12:12:24;;;;;;;12.40;6.28;;;24.00;99.90;;;;;;4977319;28;20038;-77
2023/07/03 12:14:57;;;;;;;12.10;5.70;;;24.40;99.90;;;;;;4978987;28;20029;-76
2023/07/03 12:17:27;;;;;;;13.02;5.97;;;24.80;99.90;;;;;;4976276;28;20037;-76
2023/07/03 12:20:20;;;;;;;11.27;6.63;;;25.10;99.90;;;;;;4977223;28;20502;-75
2023/07/03 12:22:48;;;;;;;11.32;6.38;;;25.60;99.90;;;;;;4978793;28;20038;-76
2023/07/03 12:25:25;;;;;;;10.48;5.85;;;26.20;99.90;;;;;;4977653;28;20042;-75
2023/07/03 12:27:52;;;;;;;9.10;6.10;;;26.60;99.90;;;;;;4978654;28;20104;-76
2023/07/03 12:30:32;;;;;;;10.30;6.00;;;26.90;99.90;;;;;;4976232;28;20039;-76
2023/07/03 12:32:59;;;;;;;10.73;6.22;;;27.20;99.90;;;;;;4975042;28;20046;-76
2023/07/03 12:35:32;;;;;;;11.07;6.32;;;27.10;99.90;;;;;;4978118;28;20095;-75
2023/07/03 12:38:06;;;;;;;13.65;6.57;;;27.00;99.90;;;;;;4975984;28;20112;-75
2023/07/03 12:40:32;;;;;;;12.10;5.60;;;26.60;99.90;;;;;;4976573;28;20413;-76
2023/07/03 12:42:58;;;;;;;15.50;6.18;;;26.30;99.90;;;;;;4977923;28;20034;-77
2023/07/03 12:45:28;;;;;;;13.77;6.60;;;26.00;99.90;;;;;;4977393;28;21203;-75